sensor_id;sensor_type;location;lat;lon;timestamp;pressure;altitude;pressure_sealevel;temperature;humidity
21588;BME280;10956;48.878;13.316;2023-02-28T00:00:50;94781.66;;;-3.68;100.00
21588;BME280;10956;48.878;13.316;2023-02-28T00:03:16;94779.25;;;-3.69;100.00
21588;BME280;10956;48.878;13.316;2023-02-28T00:05:41;94780.66;;;-3.59;100.00
21588;BME280;10956;48.878;13.316;2023-02-28T00:08:07;94779.72;;;-3.66;100.00
21588;BME280;10956;48.878;13.316;2023-02-28T00:10:33;94774.56;;;-3.66;100.00
21588;BME280;10956;48.878;13.316;2023-02-28T00:13:05;94766.50;;;-3.54;100.00
21588;BME280;10956;48.878;13.316;2023-02-28T00:15:31;94765.53;;;-3.62;100.00
21588;BME280;10956;48.878;13.316;2023-02-28T00:17:57;94751.38;;;-3.58;100.00
21588;BME280;10956;48.878;13.316;2023-02-28T00:20:23;94760.06;;;-3.59;100.00
21588;BME280;10956;48.878;13.316;2023-02-28T00:22:51;94751.06;;;-3.63;100.00
21588;BME280;10956;48.878;13.316;2023-02-28T00:25:19;94748.47;;;-3.63;100.00
21588;BME280;10956;48.878;13.316;2023-02-28T00:27:45;94761.03;;;-3.60;100.00
21588;BME280;10956;48.878;13.316;2023-02-28T00:30:13;94748.66;;;-3.64;100.00
21588;BME280;10956;48.878;13.316;2023-02-28T00:32:39;94750.41;;;-3.65;100.00
21588;BME280;10956;48.878;13.316;2023-02-28T00:35:06;94744.94;;;-3.62;100.00
21588;BME280;10956;48.878;13.316;2023-02-28T00:37:32;94741.41;;;-3.61;100.00
21588;BME280;10956;48.878;13.316;2023-02-28T00:39:57;94746.53;;;-3.61;100.00
21588;BME280;10956;48.878;13.316;2023-02-28T00:42:23;94744.28;;;-3.55;100.00
21588;BME280;10956;48.878;13.316;2023-02-28T00:44:48;94729.16;;;-3.59;100.00
21588;BME280;10956;48.878;13.316;2023-02-28T00:47:14;94731.69;;;-3.50;100.00
21588;BME280;10956;48.878;13.316;2023-02-28T00:49:40;94735.25;;;-3.51;100.00
21588;BME280;10956;48.878;13.316;2023-02-28T00:52:05;94724.31;;;-3.53;100.00
21588;BME280;10956;48.878;13.316;2023-02-28T00:54:31;94728.00;;;-3.56;100.00
21588;BME280;10956;48.878;13.316;2023-02-28T00:56:56;94727.06;;;-3.63;100.00
21588;BME280;10956;48.878;13.316;2023-02-28T00:59:21;94722.38;;;-3.60;100.00
21588;BME280;10956;48.878;13.316;2023-02-28T01:01:47;94717.25;;;-3.60;100.00
21588;BME280;10956;48.878;13.316;2023-02-28T01:04:14;94736.56;;;-3.64;100.00
21588;BME280;10956;48.878;13.316;2023-02-28T01:06:40;94712.75;;;-3.66;100.00
21588;BME280;10956;48.878;13.316;2023-02-28T01:09:06;94710.78;;;-3.55;100.00
21588;BME280;10956;48.878;13.316;2023-02-28T01:11:32;94713.72;;;-3.67;100.00
21588;BME280;10956;48.878;13.316;2023-02-28T01:13:58;94705.66;;;-3.64;100.00
21588;BME280;10956;48.878;13.316;2023-02-28T01:16:24;94709.53;;;-3.68;100.00
21588;BME280;10956;48.878;13.316;2023-02-28T01:18:50;94705.03;;;-3.66;100.00
21588;BME280;10956;48.878;13.316;2023-02-28T01:21:17;94717.25;;;-3.60;100.00
21588;BME280;10956;48.878;13.316;2023-02-28T01:23:43;94720.44;;;-3.58;100.00
21588;BME280;10956;48.878;13.316;2023-02-28T01:26:15;94719.31;;;-3.55;100.00
21588;BME280;10956;48.878;13.316;2023-02-28T01:28:41;94707.28;;;-3.63;100.00
21588;BME280;10956;48.878;13.316;2023-02-28T01:31:08;94739.75;;;-3.53;100.00
21588;BME280;10956;48.878;13.316;2023-02-28T01:33:34;94720.44;;;-3.58;99.53
21588;BME280;10956;48.878;13.316;2023-02-28T01:36:10;94706.28;;;-3.53;99.81
21588;BME280;10956;48.878;13.316;2023-02-28T01:38:36;94707.41;;;-3.56;100.00
21588;BME280;10956;48.878;13.316;2023-02-28T01:41:03;94704.19;;;-3.58;100.00
21588;BME280;10956;48.878;13.316;2023-02-28T01:43:31;94703.06;;;-3.55;100.00
21588;BME280;10956;48.878;13.316;2023-02-28T01:45:58;94696.63;;;-3.60;100.00
21588;BME280;10956;48.878;13.316;2023-02-28T01:48:27;94705.00;;;-3.58;100.00
21588;BME280;10956;48.878;13.316;2023-02-28T01:50:55;94701.63;;;-3.58;100.00
21588;BME280;10956;48.878;13.316;2023-02-28T01:53:26;94694.38;;;-3.63;100.00
21588;BME280;10956;48.878;13.316;2023-02-28T01:55:56;94695.34;;;-3.64;100.00
21588;BME280;10956;48.878;13.316;2023-02-28T01:58:22;94687.63;;;-3.64;100.00
21588;BME280;10956;48.878;13.316;2023-02-28T02:00:48;94691.47;;;-3.60;100.00
21588;BME280;10956;48.878;13.316;2023-02-28T02:03:16;94687.94;;;-3.59;100.00
21588;BME280;10956;48.878;13.316;2023-02-28T02:05:44;94694.69;;;-3.58;100.00
21588;BME280;10956;48.878;13.316;2023-02-28T02:08:17;94697.91;;;-3.55;100.00
21588;BME280;10956;48.878;13.316;2023-02-28T02:10:45;94690.00;;;-3.54;99.24
21588;BME280;10956;48.878;13.316;2023-02-28T02:19:02;94682.66;;;-3.65;100.00
21588;BME280;10956;48.878;13.316;2023-02-28T02:40:32;94687.78;;;-3.65;100.00
21588;BME280;10956;48.878;13.316;2023-02-28T02:43:07;94696.97;;;-3.63;100.00
21588;BME280;10956;48.878;13.316;2023-02-28T02:45:41;94691.94;;;-3.56;99.24
21588;BME280;10956;48.878;13.316;2023-02-28T02:48:10;94683.13;;;-3.62;99.83
21588;BME280;10956;48.878;13.316;2023-02-28T02:50:41;94690.22;;;-3.64;99.97
21588;BME280;10956;48.878;13.316;2023-02-28T02:53:09;94696.63;;;-3.60;99.39
21588;BME280;10956;48.878;13.316;2023-02-28T02:55:40;94688.59;;;-3.65;99.91
21588;BME280;10956;48.878;13.316;2023-02-28T02:58:11;94696.63;;;-3.60;99.94
21588;BME280;10956;48.878;13.316;2023-02-28T03:00:43;94695.34;;;-3.64;99.97
21588;BME280;10956;48.878;13.316;2023-02-28T03:03:12;94691.69;;;-3.69;100.00
21588;BME280;10956;48.878;13.316;2023-02-28T03:05:50;94701.50;;;-3.73;100.00
21588;BME280;10956;48.878;13.316;2023-02-28T03:08:16;94696.66;;;-3.68;100.00
21588;BME280;10956;48.878;13.316;2023-02-28T03:10:44;94706.00;;;-3.67;100.00
21588;BME280;10956;48.878;13.316;2023-02-28T03:13:55;94693.41;;;-3.62;99.28
21588;BME280;10956;48.878;13.316;2023-02-28T03:24:49;94700.22;;;-3.69;99.67
21588;BME280;10956;48.878;13.316;2023-02-28T03:27:42;94695.22;;;-3.70;98.76
21588;BME280;10956;48.878;13.316;2023-02-28T03:32:55;94692.16;;;-3.66;98.43
21588;BME280;10956;48.878;13.316;2023-02-28T03:35:24;94692.00;;;-3.72;100.00
21588;BME280;10956;48.878;13.316;2023-02-28T03:37:55;94694.41;;;-3.71;99.30
21588;BME280;10956;48.878;13.316;2023-02-28T03:40:25;94694.09;;;-3.68;99.86
21588;BME280;10956;48.878;13.316;2023-02-28T03:42:58;94695.69;;;-3.67;99.50
21588;BME280;10956;48.878;13.316;2023-02-28T03:45:27;94701.31;;;-3.63;99.78
21588;BME280;10956;48.878;13.316;2023-02-28T03:48:02;94699.22;;;-3.68;99.53
21588;BME280;10956;48.878;13.316;2023-02-28T03:53:04;94692.19;;;-3.82;99.63
21588;BME280;10956;48.878;13.316;2023-02-28T03:55:40;94697.16;;;-3.72;99.43
21588;BME280;10956;48.878;13.316;2023-02-28T03:58:15;94693.44;;;-3.70;99.38
21588;BME280;10956;48.878;13.316;2023-02-28T04:00:49;94702.81;;;-3.77;99.13
21588;BME280;10956;48.878;13.316;2023-02-28T04:03:16;94704.41;;;-3.76;100.00
21588;BME280;10956;48.878;13.316;2023-02-28T04:05:52;94694.41;;;-3.71;99.66
21588;BME280;10956;48.878;13.316;2023-02-28T04:08:18;94705.69;;;-3.72;99.10
21588;BME280;10956;48.878;13.316;2023-02-28T04:10:48;94691.88;;;-3.79;98.01
21588;BME280;10956;48.878;13.316;2023-02-28T04:13:16;94702.03;;;-3.85;98.98
21588;BME280;10956;48.878;13.316;2023-02-28T04:15:41;94711.81;;;-3.81;98.46
21588;BME280;10956;48.878;13.316;2023-02-28T04:18:06;94712.59;;;-3.72;97.41
21588;BME280;10956;48.878;13.316;2023-02-28T04:20:32;94702.81;;;-3.77;98.37
21588;BME280;10956;48.878;13.316;2023-02-28T04:22:57;94694.75;;;-3.74;96.70
21588;BME280;10956;48.878;13.316;2023-02-28T04:25:22;94698.97;;;-3.81;97.05
21588;BME280;10956;48.878;13.316;2023-02-28T04:27:48;94697.34;;;-3.82;98.83
21588;BME280;10956;48.878;13.316;2023-02-28T04:30:13;94700.88;;;-3.83;98.58
21588;BME280;10956;48.878;13.316;2023-02-28T04:32:39;94704.44;;;-3.84;98.70
21588;BME280;10956;48.878;13.316;2023-02-28T04:35:04;94705.06;;;-3.82;98.48
21588;BME280;10956;48.878;13.316;2023-02-28T04:37:30;94703.78;;;-3.86;99.54
21588;BME280;10956;48.878;13.316;2023-02-28T04:40:00;94698.97;;;-3.81;100.00
21588;BME280;10956;48.878;13.316;2023-02-28T04:42:25;94694.28;;;-3.77;98.94
21588;BME280;10956;48.878;13.316;2023-02-28T04:44:51;94700.22;;;-3.77;99.23
21588;BME280;10956;48.878;13.316;2023-02-28T04:47:17;94700.09;;;-3.83;99.42
21588;BME280;10956;48.878;13.316;2023-02-28T04:49:42;94707.97;;;-3.85;99.72
21588;BME280;10956;48.878;13.316;2023-02-28T04:52:08;94701.69;;;-3.82;99.08
21588;BME280;10956;48.878;13.316;2023-02-28T04:54:35;94701.22;;;-3.86;99.40
21588;BME280;10956;48.878;13.316;2023-02-28T04:57:00;94687.38;;;-3.85;99.92
21588;BME280;10956;48.878;13.316;2023-02-28T04:59:26;94700.75;;;-3.89;99.78
21588;BME280;10956;48.878;13.316;2023-02-28T05:01:52;94700.59;;;-3.88;99.77
21588;BME280;10956;48.878;13.316;2023-02-28T05:04:17;94699.13;;;-3.91;98.79
21588;BME280;10956;48.878;13.316;2023-02-28T05:06:43;94691.41;;;-3.91;99.52
21588;BME280;10956;48.878;13.316;2023-02-28T05:09:08;94701.06;;;-3.93;100.00
21588;BME280;10956;48.878;13.316;2023-02-28T05:11:36;94694.13;;;-3.84;99.05
21588;BME280;10956;48.878;13.316;2023-02-28T05:14:11;94693.84;;;-3.97;100.00
21588;BME280;10956;48.878;13.316;2023-02-28T05:16:36;94688.03;;;-3.91;100.00
21588;BME280;10956;48.878;13.316;2023-02-28T05:19:02;94699.63;;;-3.87;100.00
21588;BME280;10956;48.878;13.316;2023-02-28T05:23:59;94700.91;;;-3.91;100.00
21588;BME280;10956;48.878;13.316;2023-02-28T05:26:26;94705.09;;;-3.90;100.00
21588;BME280;10956;48.878;13.316;2023-02-28T05:28:51;94700.91;;;-3.91;100.00
21588;BME280;10956;48.878;13.316;2023-02-28T05:31:17;94711.69;;;-3.87;100.00
21588;BME280;10956;48.878;13.316;2023-02-28T05:33:42;94713.13;;;-3.85;100.00
21588;BME280;10956;48.878;13.316;2023-02-28T05:36:08;94709.44;;;-3.91;100.00
21588;BME280;10956;48.878;13.316;2023-02-28T05:38:33;94710.25;;;-3.90;100.00
21588;BME280;10956;48.878;13.316;2023-02-28T05:40:59;94715.69;;;-3.85;100.00
21588;BME280;10956;48.878;13.316;2023-02-28T05:43:24;94715.06;;;-3.87;100.00
21588;BME280;10956;48.878;13.316;2023-02-28T05:45:50;94711.84;;;-3.89;100.00
21588;BME280;10956;48.878;13.316;2023-02-28T05:48:15;94708.16;;;-3.86;99.88
21588;BME280;10956;48.878;13.316;2023-02-28T05:50:42;94712.00;;;-3.82;99.64
21588;BME280;10956;48.878;13.316;2023-02-28T05:53:08;94713.78;;;-3.83;98.41
21588;BME280;10956;48.878;13.316;2023-02-28T05:55:33;94709.91;;;-3.87;99.57
21588;BME280;10956;48.878;13.316;2023-02-28T05:58:01;94712.78;;;-3.82;98.39
21588;BME280;10956;48.878;13.316;2023-02-28T06:00:26;94721.50;;;-3.83;96.72
21588;BME280;10956;48.878;13.316;2023-02-28T06:02:51;94724.38;;;-3.78;97.17
21588;BME280;10956;48.878;13.316;2023-02-28T06:05:21;94720.84;;;-3.77;96.71
21588;BME280;10956;48.878;13.316;2023-02-28T06:07:47;94714.41;;;-3.81;97.52
21588;BME280;10956;48.878;13.316;2023-02-28T06:10:13;94720.84;;;-3.77;98.13
21588;BME280;10956;48.878;13.316;2023-02-28T06:12:39;94722.91;;;-3.72;97.92
21588;BME280;10956;48.878;13.316;2023-02-28T06:15:07;94726.59;;;-3.67;97.90
21588;BME280;10956;48.878;13.316;2023-02-28T06:17:33;94734.97;;;-3.65;98.33
21588;BME280;10956;48.878;13.316;2023-02-28T06:19:58;94731.09;;;-3.61;98.03
21588;BME280;10956;48.878;13.316;2023-02-28T06:22:23;94738.81;;;-3.61;98.55
21588;BME280;10956;48.878;13.316;2023-02-28T06:24:49;94742.69;;;-3.65;98.17
21588;BME280;10956;48.878;13.316;2023-02-28T06:27:14;94736.09;;;-3.67;98.40
21588;BME280;10956;48.878;13.316;2023-02-28T06:29:40;94736.56;;;-3.64;98.84
21588;BME280;10956;48.878;13.316;2023-02-28T06:32:05;94748.28;;;-3.53;98.85
21588;BME280;10956;48.878;13.316;2023-02-28T06:34:31;94742.00;;;-3.50;98.62
21588;BME280;10956;48.878;13.316;2023-02-28T06:36:59;94742.00;;;-3.50;99.17
21588;BME280;10956;48.878;13.316;2023-02-28T06:39:28;94749.72;;;-3.42;98.29
21588;BME280;10956;48.878;13.316;2023-02-28T06:41:53;94752.91;;;-3.40;97.89
21588;BME280;10956;48.878;13.316;2023-02-28T06:44:19;94745.81;;;-3.38;97.37
21588;BME280;10956;48.878;13.316;2023-02-28T06:46:45;94755.94;;;-3.29;97.63
21588;BME280;10956;48.878;13.316;2023-02-28T06:49:11;94759.97;;;-3.26;97.91
21588;BME280;10956;48.878;13.316;2023-02-28T06:51:41;94762.19;;;-3.23;97.15
21588;BME280;10956;48.878;13.316;2023-02-28T06:54:08;94761.22;;;-3.22;97.27
21588;BME280;10956;48.878;13.316;2023-02-28T06:56:35;94763.47;;;-3.19;97.17
21588;BME280;10956;48.878;13.316;2023-02-28T06:59:01;94770.53;;;-3.13;96.64
21588;BME280;10956;48.878;13.316;2023-02-28T07:01:26;94764.72;;;-3.07;96.18
21588;BME280;10956;48.878;13.316;2023-02-28T07:03:53;94765.34;;;-3.05;95.14
21588;BME280;10956;48.878;13.316;2023-02-28T07:06:23;94767.59;;;-3.02;95.06
21588;BME280;10956;48.878;13.316;2023-02-28T07:08:50;94776.88;;;-2.92;94.41
21588;BME280;10956;48.878;13.316;2023-02-28T07:11:17;94775.91;;;-2.91;93.09
21588;BME280;10956;48.878;13.316;2023-02-28T07:13:42;94772.66;;;-2.85;92.72
21588;BME280;10956;48.878;13.316;2023-02-28T07:16:10;94779.31;;;-2.91;92.67
21588;BME280;10956;48.878;13.316;2023-02-28T07:18:36;94771.06;;;-2.86;93.00
21588;BME280;10956;48.878;13.316;2023-02-28T07:21:04;94774.28;;;-2.84;93.19
21588;BME280;10956;48.878;13.316;2023-02-28T07:23:30;94777.16;;;-2.79;92.66
21588;BME280;10956;48.878;13.316;2023-02-28T07:25:55;94772.44;;;-2.76;91.89
21588;BME280;10956;48.878;13.316;2023-02-28T07:28:20;94775.28;;;-2.63;90.73
21588;BME280;10956;48.878;13.316;2023-02-28T07:30:46;94782.22;;;-2.63;90.49
21588;BME280;10956;48.878;13.316;2023-02-28T07:33:11;94778.66;;;-2.62;90.91
21588;BME280;10956;48.878;13.316;2023-02-28T07:35:37;94777.06;;;-2.63;91.63
21588;BME280;10956;48.878;13.316;2023-02-28T07:38:03;94776.03;;;-2.54;91.65
21588;BME280;10956;48.878;13.316;2023-02-28T07:40:29;94788.75;;;-2.52;91.02
21588;BME280;10956;48.878;13.316;2023-02-28T07:42:54;94785.03;;;-2.50;90.43
21588;BME280;10956;48.878;13.316;2023-02-28T07:45:19;94772.13;;;-2.50;90.77
21588;BME280;10956;48.878;13.316;2023-02-28T07:47:45;94791.63;;;-2.47;91.04
21588;BME280;10956;48.878;13.316;2023-02-28T07:50:13;94784.97;;;-2.42;91.58
21588;BME280;10956;48.878;13.316;2023-02-28T07:52:39;94781.88;;;-2.37;91.82
21588;BME280;10956;48.878;13.316;2023-02-28T07:55:07;94786.13;;;-2.21;91.46
21588;BME280;10956;48.878;13.316;2023-02-28T07:57:32;94785.50;;;-2.23;91.60
21588;BME280;10956;48.878;13.316;2023-02-28T07:59:58;94784.88;;;-2.25;91.65
21588;BME280;10956;48.878;13.316;2023-02-28T08:02:23;94789.88;;;-2.24;92.33
21588;BME280;10956;48.878;13.316;2023-02-28T08:04:49;94806.44;;;-2.18;91.43
21588;BME280;10956;48.878;13.316;2023-02-28T08:07:16;94784.63;;;-2.16;91.51
21588;BME280;10956;48.878;13.316;2023-02-28T08:09:43;94793.13;;;-2.07;90.94
21588;BME280;10956;48.878;13.316;2023-02-28T08:12:09;94778.53;;;-2.00;89.43
21588;BME280;10956;48.878;13.316;2023-02-28T08:14:35;94793.34;;;-1.94;88.82
21588;BME280;10956;48.878;13.316;2023-02-28T08:17:01;94783.00;;;-1.94;89.75
21588;BME280;10956;48.878;13.316;2023-02-28T08:19:27;94786.50;;;-1.87;90.22
21588;BME280;10956;48.878;13.316;2023-02-28T08:21:52;94780.91;;;-1.76;89.76
21588;BME280;10956;48.878;13.316;2023-02-28T08:24:17;94780.56;;;-1.73;89.29
21588;BME280;10956;48.878;13.316;2023-02-28T08:26:43;94794.81;;;-1.77;89.02
21588;BME280;10956;48.878;13.316;2023-02-28T08:29:09;94778.59;;;-1.71;88.83
21588;BME280;10956;48.878;13.316;2023-02-28T08:31:34;94788.25;;;-1.65;88.95
21588;BME280;10956;48.878;13.316;2023-02-28T08:34:05;94792.06;;;-1.60;88.25
21588;BME280;10956;48.878;13.316;2023-02-28T08:36:30;94787.19;;;-1.55;87.03
21588;BME280;10956;48.878;13.316;2023-02-28T08:38:56;94791.66;;;-1.49;87.75
21588;BME280;10956;48.878;13.316;2023-02-28T08:41:22;94789.94;;;-1.42;87.07
21588;BME280;10956;48.878;13.316;2023-02-28T08:43:47;94788.25;;;-1.35;86.33
21588;BME280;10956;48.878;13.316;2023-02-28T08:46:13;94794.78;;;-1.39;87.49
21588;BME280;10956;48.878;13.316;2023-02-28T08:48:39;94791.91;;;-1.29;85.84
21588;BME280;10956;48.878;13.316;2023-02-28T08:51:13;94804.31;;;-1.25;85.56
21588;BME280;10956;48.878;13.316;2023-02-28T08:53:39;94793.44;;;-1.35;85.81
21588;BME280;10956;48.878;13.316;2023-02-28T08:56:10;94791.19;;;-1.38;86.38
21588;BME280;10956;48.878;13.316;2023-02-28T08:58:37;94784.88;;;-1.21;86.05
21588;BME280;10956;48.878;13.316;2023-02-28T09:01:14;94786.47;;;-1.20;85.64
21588;BME280;10956;48.878;13.316;2023-02-28T09:03:41;94785.75;;;-1.14;86.02
21588;BME280;10956;48.878;13.316;2023-02-28T09:06:07;94789.59;;;-1.10;85.26
21588;BME280;10956;48.878;13.316;2023-02-28T09:08:33;94790.50;;;-1.17;86.01
21588;BME280;10956;48.878;13.316;2023-02-28T09:10:59;94800.13;;;-1.26;86.29
21588;BME280;10956;48.878;13.316;2023-02-28T09:13:25;94784.53;;;-1.18;85.96
21588;BME280;10956;48.878;13.316;2023-02-28T09:15:51;94795.50;;;-1.16;86.91
21588;BME280;10956;48.878;13.316;2023-02-28T09:18:17;94788.78;;;-0.95;85.51
21588;BME280;10956;48.878;13.316;2023-02-28T09:20:43;94799.56;;;-0.92;85.46
21588;BME280;10956;48.878;13.316;2023-02-28T09:23:10;94795.19;;;-0.91;85.65
21588;BME280;10956;48.878;13.316;2023-02-28T09:25:36;94798.97;;;-1.09;86.39
21588;BME280;10956;48.878;13.316;2023-02-28T09:28:02;94798.25;;;-1.03;85.85
21588;BME280;10956;48.878;13.316;2023-02-28T09:30:27;94795.19;;;-0.91;86.55
21588;BME280;10956;48.878;13.316;2023-02-28T09:32:54;94800.09;;;-0.82;85.95
21588;BME280;10956;48.878;13.316;2023-02-28T09:35:20;94800.53;;;-0.78;86.43
21588;BME280;10956;48.878;13.316;2023-02-28T09:37:47;94802.22;;;-0.71;85.82
21588;BME280;10956;48.878;13.316;2023-02-28T09:40:13;94814.25;;;-0.63;85.78
21588;BME280;10956;48.878;13.316;2023-02-28T09:42:42;94804.88;;;-0.64;86.19
21588;BME280;10956;48.878;13.316;2023-02-28T09:45:23;94815.50;;;-0.59;86.40
21588;BME280;10956;48.878;13.316;2023-02-28T09:47:52;94820.25;;;-0.77;87.52
21588;BME280;10956;48.878;13.316;2023-02-28T09:52:52;94810.19;;;-0.87;87.80
21588;BME280;10956;48.878;13.316;2023-02-28T09:55:26;94819.47;;;-0.92;88.07
21588;BME280;10956;48.878;13.316;2023-02-28T09:57:54;94815.91;;;-0.91;88.55
21588;BME280;10956;48.878;13.316;2023-02-28T10:00:33;94815.28;;;-0.93;88.83
21588;BME280;10956;48.878;13.316;2023-02-28T10:03:26;94814.38;;;-0.71;87.77
21588;BME280;10956;48.878;13.316;2023-02-28T10:06:36;94827.91;;;-0.54;87.82
21588;BME280;10956;48.878;13.316;2023-02-28T10:09:19;94824.03;;;-0.44;88.14
21588;BME280;10956;48.878;13.316;2023-02-28T10:11:49;94822.56;;;-0.31;86.84
21588;BME280;10956;48.878;13.316;2023-02-28T10:14:19;94826.66;;;-0.22;86.44
21588;BME280;10956;48.878;13.316;2023-02-28T10:16:50;94825.91;;;-0.16;86.19
21588;BME280;10956;48.878;13.316;2023-02-28T10:22:21;94832.72;;;-0.15;86.63
21588;BME280;10956;48.878;13.316;2023-02-28T10:24:52;94838.38;;;-0.05;85.85
21588;BME280;10956;48.878;13.316;2023-02-28T10:27:24;94836.41;;;-0.03;86.27
21588;BME280;10956;48.878;13.316;2023-02-28T10:29:56;94832.91;;;0.05;85.78
21588;BME280;10956;48.878;13.316;2023-02-28T10:32:30;94836.78;;;0.15;85.87
21588;BME280;10956;48.878;13.316;2023-02-28T10:35:24;94828.63;;;0.18;85.58
21588;BME280;10956;48.878;13.316;2023-02-28T10:37:51;94836.66;;;0.23;85.76
21588;BME280;10956;48.878;13.316;2023-02-28T10:43:02;94827.88;;;0.24;86.91
21588;BME280;10956;48.878;13.316;2023-02-28T10:45:30;94831.09;;;0.26;87.15
21588;BME280;10956;48.878;13.316;2023-02-28T10:48:00;94824.78;;;0.36;86.99
21588;BME280;10956;48.878;13.316;2023-02-28T10:50:33;94837.19;;;0.40;87.21
21588;BME280;10956;48.878;13.316;2023-02-28T10:53:14;94827.25;;;0.44;87.74
21588;BME280;10956;48.878;13.316;2023-02-28T10:55:41;94836.88;;;0.50;87.81
21588;BME280;10956;48.878;13.316;2023-02-28T10:58:27;94837.34;;;0.60;88.34
21588;BME280;10956;48.878;13.316;2023-02-28T11:00:53;94840.56;;;0.62;85.83
21588;BME280;10956;48.878;13.316;2023-02-28T11:03:32;94836.88;;;0.50;86.74
21588;BME280;10956;48.878;13.316;2023-02-28T11:06:03;94834.47;;;0.48;88.50
21588;BME280;10956;48.878;13.316;2023-02-28T11:08:29;94842.50;;;0.53;88.75
21588;BME280;10956;48.878;13.316;2023-02-28T11:10:57;94840.31;;;0.57;88.24
21588;BME280;10956;48.878;13.316;2023-02-28T11:13:31;94838.53;;;0.57;88.46
21588;BME280;10956;48.878;13.316;2023-02-28T11:15:59;94834.56;;;0.61;88.01
21588;BME280;10956;48.878;13.316;2023-02-28T11:18:39;94835.66;;;0.74;86.36
21588;BME280;10956;48.878;13.316;2023-02-28T11:21:06;94837.03;;;0.70;87.79
21588;BME280;10956;48.878;13.316;2023-02-28T11:23:34;94838.25;;;0.74;85.39
21588;BME280;10956;48.878;13.316;2023-02-28T11:26:03;94840.41;;;0.70;84.80
21588;BME280;10956;48.878;13.316;2023-02-28T11:28:40;94843.53;;;0.59;86.18
21588;BME280;10956;48.878;13.316;2023-02-28T11:31:14;94842.16;;;0.63;86.17
21588;BME280;10956;48.878;13.316;2023-02-28T11:33:52;94838.56;;;0.64;87.20
21588;BME280;10956;48.878;13.316;2023-02-28T11:36:27;94845.00;;;0.68;87.11
21588;BME280;10956;48.878;13.316;2023-02-28T11:38:54;94853.28;;;0.57;88.28
21588;BME280;10956;48.878;13.316;2023-02-28T11:44:20;94856.50;;;0.59;89.12
21588;BME280;10956;48.878;13.316;2023-02-28T11:46:52;94857.63;;;0.50;87.39
21588;BME280;10956;48.878;13.316;2023-02-28T11:49:37;94850.72;;;0.36;88.23
21588;BME280;10956;48.878;13.316;2023-02-28T12:02:57;94837.00;;;0.42;88.15
21588;BME280;10956;48.878;13.316;2023-02-28T12:05:46;94834.28;;;0.50;88.82
21588;BME280;10956;48.878;13.316;2023-02-28T12:22:28;94845.09;;;0.81;87.25
21588;BME280;10956;48.878;13.316;2023-02-28T12:27:30;94833.34;;;0.85;88.00
21588;BME280;10956;48.878;13.316;2023-02-28T12:30:02;94833.53;;;0.84;87.27
21588;BME280;10956;48.878;13.316;2023-02-28T12:35:02;94820.47;;;0.71;88.11
21588;BME280;10956;48.878;13.316;2023-02-28T12:37:36;94823.00;;;0.64;85.90
21588;BME280;10956;48.878;13.316;2023-02-28T12:42:41;94811.06;;;0.70;86.88
21588;BME280;10956;48.878;13.316;2023-02-28T12:45:18;94815.09;;;0.72;87.98
21588;BME280;10956;48.878;13.316;2023-02-28T12:47:48;94811.50;;;0.73;88.63
21588;BME280;10956;48.878;13.316;2023-02-28T12:50:14;94817.16;;;0.83;88.76
21588;BME280;10956;48.878;13.316;2023-02-28T12:53:13;94816.00;;;0.92;86.81
21588;BME280;10956;48.878;13.316;2023-02-28T12:55:45;94810.69;;;0.73;86.19
21588;BME280;10956;48.878;13.316;2023-02-28T13:09:39;94820.50;;;1.12;87.02
21588;BME280;10956;48.878;13.316;2023-02-28T13:12:15;94807.72;;;1.10;86.99
21588;BME280;10956;48.878;13.316;2023-02-28T13:14:42;94816.69;;;1.08;88.07
21588;BME280;10956;48.878;13.316;2023-02-28T13:19:43;94816.91;;;1.13;87.89
21588;BME280;10956;48.878;13.316;2023-02-28T13:24:50;94816.31;;;1.11;89.53
21588;BME280;10956;48.878;13.316;2023-02-28T13:27:34;94813.38;;;1.20;88.68
21588;BME280;10956;48.878;13.316;2023-02-28T13:29:59;94809.34;;;1.18;88.13
21588;BME280;10956;48.878;13.316;2023-02-28T13:42:47;94820.91;;;1.09;87.37
21588;BME280;10956;48.878;13.316;2023-02-28T13:45:22;94806.53;;;1.13;87.88
21588;BME280;10956;48.878;13.316;2023-02-28T13:47:53;94821.72;;;1.16;88.53
21588;BME280;10956;48.878;13.316;2023-02-28T13:50:23;94809.47;;;1.03;89.10
21588;BME280;10956;48.878;13.316;2023-02-28T14:11:38;94840.13;;;1.21;89.19
21588;BME280;10956;48.878;13.316;2023-02-28T14:14:06;94836.16;;;1.25;90.17
21588;BME280;10956;48.878;13.316;2023-02-28T14:16:44;94839.31;;;1.20;90.48
21588;BME280;10956;48.878;13.316;2023-02-28T14:19:28;94830.34;;;1.23;89.70
21588;BME280;10956;48.878;13.316;2023-02-28T14:27:31;94836.31;;;1.17;89.40
21588;BME280;10956;48.878;13.316;2023-02-28T14:35:44;94832.63;;;0.98;92.11
21588;BME280;10956;48.878;13.316;2023-02-28T14:38:19;94832.81;;;0.96;91.89
21588;BME280;10956;48.878;13.316;2023-02-28T14:40:47;94825.41;;;0.93;90.81
21588;BME280;10956;48.878;13.316;2023-02-28T14:43:26;94820.22;;;0.93;90.79
21588;BME280;10956;48.878;13.316;2023-02-28T14:45:58;94830.44;;;1.02;89.90
21588;BME280;10956;48.878;13.316;2023-02-28T14:48:25;94829.59;;;0.94;90.57
21588;BME280;10956;48.878;13.316;2023-02-28T14:50:57;94823.59;;;0.94;89.73
21588;BME280;10956;48.878;13.316;2023-02-28T14:53:26;94835.78;;;0.93;91.08
21588;BME280;10956;48.878;13.316;2023-02-28T14:55:52;94829.59;;;0.94;91.37
21588;BME280;10956;48.878;13.316;2023-02-28T14:58:27;94829.22;;;0.98;90.61
21588;BME280;10956;48.878;13.316;2023-02-28T15:00:55;94835.63;;;1.02;90.10
21588;BME280;10956;48.878;13.316;2023-02-28T15:06:14;94829.56;;;0.88;90.75
21588;BME280;10956;48.878;13.316;2023-02-28T15:08:41;94840.75;;;0.88;90.76
21588;BME280;10956;48.878;13.316;2023-02-28T15:11:11;94824.75;;;0.85;90.44
21588;BME280;10956;48.878;13.316;2023-02-28T15:13:46;94833.09;;;0.80;90.37
21588;BME280;10956;48.878;13.316;2023-02-28T15:16:30;94827.91;;;0.80;89.00
21588;BME280;10956;48.878;13.316;2023-02-28T15:19:07;94834.72;;;0.81;89.09
21588;BME280;10956;48.878;13.316;2023-02-28T15:21:39;94835.22;;;0.70;91.90
21588;BME280;10956;48.878;13.316;2023-02-28T15:27:07;94835.78;;;0.66;92.54